Terminal Aerodrome Forecast
Issued by NWS

Home | Current Version | Previous Version | Graphics & Text | Print | Product List | Glossary On
Versions: 1 2 3 4 5 6 7 8 9 10 11 12 13 14 15 16 17 18 19 20 21 22 23
000
FTUS43 KBIS 041128
TAFJMS
TAF
KJMS 041128Z 0412/0512 16004KT 1SM FU VV035
      TEMPO 0412/0414 3SM BR FU VV035
     FM041600 18009KT 5SM FU SCT040
     FM042000 18015KT P6SM SCT050 SCT080
     FM050600 18010KT P6SM SCT035 SCT050 OVC080=

USA.gov is the U.S. government's official web portal to all federal, state and local government web resources and services.